Map

Track Data

SID SEASON NUMBER BASIN SUBBASIN NAME ISO_TIME NATURE LAT LON WMO_WIND WMO_PRES WMO_AGENCY TRACK_TYPE DIST2LAND LANDFALL IFLAG USA_AGENCY USA_ATCF_ID USA_LAT USA_LON USA_RECORD USA_STATUS USA_WIND USA_PRES USA_SSHS USA_R34_NE USA_R34_SE USA_R34_SW USA_R34_NW USA_R50_NE USA_R50_SE USA_R50_SW USA_R50_NW USA_R64_NE USA_R64_SE USA_R64_SW USA_R64_NW USA_POCI USA_ROCI USA_RMW USA_EYE TOKYO_LAT TOKYO_LON TOKYO_GRADE TOKYO_WIND TOKYO_PRES TOKYO_R50_DIR TOKYO_R50_LONG TOKYO_R50_SHORT TOKYO_R30_DIR TOKYO_R30_LONG TOKYO_R30_SHORT TOKYO_LAND CMA_LAT CMA_LON CMA_CAT CMA_WIND CMA_PRES HKO_LAT HKO_LON HKO_CAT HKO_WIND HKO_PRES NEWDELHI_LAT NEWDELHI_LON NEWDELHI_GRADE NEWDELHI_WIND NEWDELHI_PRES NEWDELHI_CI NEWDELHI_DP NEWDELHI_POCI REUNION_LAT REUNION_LON REUNION_TYPE REUNION_WIND REUNION_PRES REUNION_TNUM REUNION_CI REUNION_RMW REUNION_R34_NE REUNION_R34_SE REUNION_R34_SW REUNION_R34_NW REUNION_R50_NE REUNION_R50_SE REUNION_R50_SW REUNION_R50_NW REUNION_R64_NE REUNION_R64_SE REUNION_R64_SW REUNION_R64_NW BOM_LAT BOM_LON BOM_TYPE BOM_WIND BOM_PRES BOM_TNUM BOM_CI BOM_RMW BOM_R34_NE BOM_R34_SE BOM_R34_SW BOM_R34_NW BOM_R50_NE BOM_R50_SE BOM_R50_SW BOM_R50_NW BOM_R64_NE BOM_R64_SE BOM_R64_SW BOM_R64_NW BOM_ROCI BOM_POCI BOM_EYE BOM_POS_METHOD BOM_PRES_METHOD NADI_LAT NADI_LON NADI_CAT NADI_WIND NADI_PRES WELLINGTON_LAT WELLINGTON_LON WELLINGTON_WIND WELLINGTON_PRES DS824_LAT DS824_LON DS824_STAGE DS824_WIND DS824_PRES TD9636_LAT TD9636_LON TD9636_STAGE TD9636_WIND TD9636_PRES TD9635_LAT TD9635_LON TD9635_WIND TD9635_PRES TD9635_ROCI NEUMANN_LAT NEUMANN_LON NEUMANN_CLASS NEUMANN_WIND NEUMANN_PRES MLC_LAT MLC_LON MLC_CLASS MLC_WIND MLC_PRES USA_GUST BOM_GUST BOM_GUST_PER REUNION_GUST REUNION_GUST_PER USA_SEAHGT USA_SEARAD_NE USA_SEARAD_SE USA_SEARAD_SW USA_SEARAD_NW STORM_SPEED STORM_DIR
1950192N25079 1950 37 NI BB NOT_NAMED 1950-07-10 18:00:00 TS 25.2000 79.3000 main 0 0 O________O____ jtwc_io IO051950 25.2000 79.3000 -1 25.2000 79.3000 TC 0 0
1950192N25079 1950 37 NI BB NOT_NAMED 1950-07-10 21:00:00 TS 25.2023 79.2775 main 0 0 P________P____ IO051950 25.2023 79.2775 -1 25.2023 79.2775 TC 2 270
1950192N25079 1950 37 NI BB NOT_NAMED 1950-07-11 00:00:00 TS 25.2000 79.1000 main 0 0 O________O____ jtwc_io IO051950 25.2000 79.1000 -1 25.2000 79.1000 TC 25 5 269
1950192N25079 1950 37 NI BB NOT_NAMED 1950-07-11 03:00:00 TS 25.1935 78.6710 main 0 0 P________PO___ IO051950 25.1927 78.6674 -1 25.1927 78.6674 TC 25 25.2000 78.7000 1 9 270
1950192N25079 1950 37 NI BB NOT_NAMED 1950-07-11 06:00:00 TS 25.2041 78.1044 main 0 0 O________OP___ jtwc_io IO051950 25.2000 78.1000 -1 25.2000 78.1000 TC 25 25.2203 78.1218 1 10 273
1950192N25079 1950 37 NI AS NOT_NAMED 1950-07-11 09:00:00 TS 25.2475 77.5596 main 0 0 P________PP___ IO051950 25.2498 77.5651 -1 25.2498 77.5651 TC 25 25.2416 77.5449 1 10 275
1950192N25079 1950 37 NI AS NOT_NAMED 1950-07-11 12:00:00 TS 25.2890 76.9902 main 0 0 O________OP___ jtwc_io IO051950 25.3000 77.0000 -1 25.3000 77.0000 TC 25 25.2671 76.9705 1 10 273
1950192N25079 1950 37 NI AS NOT_NAMED 1950-07-11 15:00:00 TS 25.3000 76.3999 main 0 0 P________PO___ IO051950 25.2999 76.3998 -1 25.2999 76.3998 TC 25 25.3000 76.4000 1 11 271
1950192N25079 1950 37 NI AS NOT_NAMED 1950-07-11 18:00:00 TS 25.3142 75.8121 main 0 0 O________OP___ jtwc_io IO051950 25.3000 75.8000 -1 25.3000 75.8000 TC 25 25.3425 75.8364 1 10 273
1950192N25079 1950 37 NI AS NOT_NAMED 1950-07-11 21:00:00 TS 25.3590 75.2435 main 0 0 P________PP___ IO051950 25.3424 75.2201 -1 25.3424 75.2201 TC 25 25.3923 75.2902 1 10 276
1950192N25079 1950 37 NI AS NOT_NAMED 1950-07-12 00:00:00 TS 25.4153 74.7246 main 0 0 O________OP___ jtwc_io IO051950 25.4000 74.7000 -1 25.4000 74.7000 TC 25 25.4458 74.7739 1 9 277
1950192N25079 1950 37 NI AS NOT_NAMED 1950-07-12 03:00:00 TS 25.4665 74.2800 main 0 0 P________PO___ IO051950 25.4497 74.2700 -1 25.4497 74.2700 TC 25 25.5000 74.3000 1 8 278
1950192N25079 1950 37 NI AS NOT_NAMED 1950-07-12 06:00:00 TS 25.5177 73.8939 main 0 0 O________OP___ jtwc_io IO051950 25.5000 73.9000 -1 25.5000 73.9000 TC 25 25.5531 73.8818 1 7 279
1950192N25079 1950 37 NI AS NOT_NAMED 1950-07-12 09:00:00 TS 25.5686 73.5350 main 0 0 P________PP___ IO051950 25.5498 73.5499 -1 25.5498 73.5499 TC 25 25.6063 73.5050 1 6 279
1950192N25079 1950 37 NI AS NOT_NAMED 1950-07-12 12:00:00 TS 25.6188 73.1835 main 0 0 O________OP___ jtwc_io IO051950 25.6000 73.2000 -1 25.6000 73.2000 TC 25 25.6564 73.1506 1 7 278
1950192N25079 1950 37 NI AS NOT_NAMED 1950-07-12 15:00:00 TS 25.6667 72.8000 main 0 0 P________PO___ IO051950 25.6500 72.8000 -1 25.6500 72.8000 TC 25 25.7000 72.8000 1 7 278
1950192N25079 1950 37 NI AS NOT_NAMED 1950-07-12 18:00:00 TS 25.7135 72.4002 main 0 0 O________OP___ jtwc_io IO051950 25.7000 72.4000 -1 25.7000 72.4000 TC 25 25.7404 72.4007 1 7 278
1950192N25079 1950 37 NI AS NOT_NAMED 1950-07-12 21:00:00 TS 25.7625 72.0300 main 0 0 P________PP___ IO051950 25.7574 72.0425 -1 25.7574 72.0425 TC 25 25.7727 72.0051 1 7 277
1950192N25079 1950 37 NI AS NOT_NAMED 1950-07-13 00:00:00 TS 25.7979 71.6773 main 0 0 O________OP___ jtwc_io IO051950 25.8000 71.7000 -1 25.8000 71.7000 TC 25 25.7936 71.6320 1 6 274
1950192N25079 1950 37 NI AS NOT_NAMED 1950-07-13 03:00:00 TS 25.8100 71.3183 main 0 0 P________PO___ IO051950 25.8151 71.3275 -1 25.8151 71.3275 TC 25 25.8000 71.3000 1 6 270
1950192N25079 1950 37 NI AS NOT_NAMED 1950-07-13 06:00:00 TS 25.7949 71.0092 main 0 0 O________OP___ jtwc_io IO051950 25.8000 71.0000 -1 25.8000 71.0000 TC 25 25.7848 71.0276 1 5 263
1950192N25079 1950 37 NI AS NOT_NAMED 1950-07-13 09:00:00 TS 25.7522 70.7841 main 0 0 P________PP___ IO051950 25.7499 70.7775 -1 25.7499 70.7775 TC 25 25.7569 70.7973 1 4 257
1950192N25079 1950 37 NI AS NOT_NAMED 1950-07-13 12:00:00 TS 25.7085 70.5978 main 0 0 O________OP___ jtwc_io IO051950 25.7000 70.6000 -1 25.7000 70.6000 TC 25 25.7256 70.5933 1 4 261
1950192N25079 1950 37 NI AS NOT_NAMED 1950-07-13 15:00:00 TS 25.6950 70.4000 main 0 0 P________PO___ IO051950 25.6925 70.4000 -1 25.6925 70.4000 TC 25 25.7000 70.4000 1 4 268
1950192N25079 1950 37 NI AS NOT_NAMED 1950-07-13 18:00:00 TS 25.6949 70.2018 main 0 0 O________OP___ jtwc_io IO051950 25.7000 70.2000 -1 25.7000 70.2000 TC 25 25.6872 70.2045 1 4 270
1950192N25079 1950 37 NI AS NOT_NAMED 1950-07-13 21:00:00 TS 25.6952 70.0022 main 0 0 P________PP___ IO051950 25.7026 70.0000 -1 25.7026 70.0000 TC 25 25.6854 70.0051 1 4 270
1950192N25079 1950 37 NI AS NOT_NAMED 1950-07-14 00:00:00 TS 25.6955 69.8016 main 0 0 O________OP___ jtwc_io IO051950 25.7000 69.8000 -1 25.7000 69.8000 TC 25 25.6910 69.8032 1 4 271
1950192N25079 1950 37 NI AS NOT_NAMED 1950-07-14 03:00:00 NR 25.7000 69.6000 main 0 __________O___ IO051950 -1 TC 25.7000 69.6000 1 4 271

About IBTrACS Database

This database is a web-friendly format of International Best Track Archive for Climate Stewardship (IBTrACS), a global best track data archive curated by NOAA dating back to 1842.

Updated: 2021-12-03